createdAt,value
2022-12-14T00:04:42.155Z,100426.44
2022-12-14T00:09:47.148Z,100420.28
2022-12-14T00:14:50.002Z,100424.97
2022-12-14T00:19:52.775Z,100419.22
2022-12-14T00:24:56.903Z,100416.66
2022-12-14T00:30:00.741Z,100409.09
2022-12-14T00:35:03.526Z,100408.16
2022-12-14T00:40:09.787Z,100400.03
2022-12-14T00:45:12.890Z,100404.00
2022-12-14T00:50:15.991Z,100394.34
2022-12-14T00:55:20.144Z,100398.16
2022-12-14T01:00:22.891Z,100399.22
2022-12-14T01:05:25.676Z,100409.44
2022-12-14T01:10:30.111Z,100418.66
2022-12-14T01:15:32.856Z,100405.09
2022-12-14T01:20:35.599Z,100405.66
2022-12-14T01:25:39.682Z,100399.69
2022-12-14T01:30:42.403Z,100392.81
2022-12-14T01:35:45.157Z,100379.66
2022-12-14T01:40:49.252Z,100374.97
2022-12-14T01:45:56.196Z,100374.38
2022-12-14T01:50:58.974Z,100374.28
2022-12-14T01:56:04.868Z,100362.53
2022-12-14T02:01:07.729Z,100364.31
2022-12-14T02:06:15.460Z,100366.59
2022-12-14T02:11:30.734Z,100357.22
2022-12-14T02:16:33.761Z,100357.38
2022-12-14T02:21:53.316Z,100360.81
2022-12-14T02:27:26.904Z,100358.22
2022-12-14T02:32:57.723Z,100355.00
2022-12-14T02:38:09.557Z,100348.34
2022-12-14T02:43:17.356Z,100348.88
2022-12-14T02:48:25.935Z,100337.84
2022-12-14T02:53:35.502Z,100331.13
2022-12-14T02:58:42.291Z,100314.97
2022-12-14T03:03:46.972Z,100321.66
2022-12-14T03:08:49.931Z,100315.19
2022-12-14T03:13:57.295Z,100313.59
2022-12-14T03:19:08.914Z,100306.56
2022-12-14T03:24:14.724Z,100310.03
2022-12-14T03:29:24.176Z,100290.66
2022-12-14T03:34:32.359Z,100295.69
2022-12-14T03:39:37.592Z,100279.75
2022-12-14T03:44:49.097Z,100280.16
2022-12-14T03:50:01.282Z,100272.69
2022-12-14T03:55:12.624Z,100272.91
2022-12-14T04:00:19.858Z,100269.13
2022-12-14T04:05:28.400Z,100265.09
2022-12-14T04:10:54.957Z,100257.72
2022-12-14T04:16:18.576Z,100258.84
2022-12-14T04:21:29.457Z,100257.38
2022-12-14T04:26:38.371Z,100241.81
2022-12-14T04:31:47.045Z,100242.81
2022-12-14T04:36:56.955Z,100245.38
2022-12-14T04:42:03.744Z,100238.25
2022-12-14T04:47:10.700Z,100238.66
2022-12-14T04:52:18.877Z,100236.19
2022-12-14T04:57:26.975Z,100231.91
2022-12-14T05:02:37.407Z,100224.53
2022-12-14T05:07:49.009Z,100221.84
2022-12-14T05:12:59.118Z,100220.75
2022-12-14T05:18:03.798Z,100229.34
2022-12-14T05:23:07.938Z,100219.16
2022-12-14T05:28:11.348Z,100218.28
2022-12-14T05:33:19.575Z,100199.69
2022-12-14T05:38:24.192Z,100213.28
2022-12-14T05:43:27.243Z,100206.91
2022-12-14T05:48:31.129Z,100206.28
2022-12-14T05:53:35.405Z,100207.41
2022-12-14T05:58:38.569Z,100200.06
2022-12-14T06:03:41.346Z,100190.72
2022-12-14T06:08:47.277Z,100188.63
2022-12-14T06:13:50.904Z,100188.59
2022-12-14T06:18:55.199Z,100188.50
2022-12-14T06:24:00.834Z,100177.31
2022-12-14T06:29:04.465Z,100183.38
2022-12-14T06:34:07.279Z,100180.13
2022-12-14T06:39:14.437Z,100178.16
2022-12-14T06:44:17.249Z,100182.25
2022-12-14T06:49:20.125Z,100176.81
2022-12-14T06:54:24.321Z,100179.50
2022-12-14T06:59:27.231Z,100165.41
2022-12-14T07:04:30.172Z,100173.22
2022-12-14T07:09:34.321Z,100163.97
2022-12-14T07:14:37.200Z,100154.94
2022-12-14T07:19:39.966Z,100159.19
2022-12-14T07:24:44.222Z,100156.69
2022-12-14T07:29:47.055Z,100166.69
2022-12-14T07:34:49.807Z,100164.41
2022-12-14T07:39:53.954Z,100159.22
2022-12-14T07:44:56.725Z,100158.94
2022-12-14T07:49:59.443Z,100157.22
2022-12-14T07:55:07.616Z,100165.16
2022-12-14T08:00:11.712Z,100160.66
2022-12-14T08:05:14.539Z,100149.69
2022-12-14T08:10:18.858Z,100143.22
2022-12-14T08:22:02.279Z,100141.25
2022-12-14T08:32:32.470Z,100137.88
2022-12-14T08:37:47.698Z,100135.63
2022-12-14T08:42:52.320Z,100133.06
2022-12-14T08:47:57.932Z,100125.94
2022-12-14T08:53:02.726Z,100119.88
2022-12-14T08:58:07.436Z,100115.72
2022-12-14T09:03:11.798Z,100110.84
2022-12-14T09:08:14.986Z,100105.28
2022-12-14T09:13:19.433Z,100105.63
2022-12-14T09:18:22.242Z,100104.22
2022-12-14T09:23:43.690Z,100104.03
2022-12-14T09:28:49.841Z,100097.53
2022-12-14T09:33:56.898Z,100100.25
2022-12-14T09:38:59.921Z,100095.72
2022-12-14T09:44:18.662Z,100092.63
2022-12-14T09:49:29.036Z,100100.06
2022-12-14T09:54:35.996Z,100087.97
2022-12-14T09:59:40.399Z,100093.38
2022-12-14T10:04:55.462Z,100083.47
2022-12-14T10:10:04.695Z,100076.97
2022-12-14T10:15:21.916Z,100074.81
2022-12-14T10:20:32.179Z,100065.41
2022-12-14T10:25:40.096Z,100056.03
2022-12-14T10:30:45.069Z,100060.84
2022-12-14T10:35:52.773Z,100051.28
2022-12-14T10:41:00.992Z,100041.16
2022-12-14T10:46:18.019Z,100036.59
2022-12-14T10:51:26.489Z,100035.09
2022-12-14T10:56:32.818Z,100039.75
2022-12-14T11:01:37.554Z,100032.19
2022-12-14T11:06:41.171Z,100025.00
2022-12-14T11:11:45.754Z,100018.13
2022-12-14T11:16:56.774Z,100022.06
2022-12-14T11:22:28.197Z,100018.94
2022-12-14T11:27:31.361Z,100007.66
2022-12-14T11:32:36.680Z,100011.69
2022-12-14T11:37:39.588Z,100007.16
2022-12-14T11:42:49.075Z,100003.97
2022-12-14T11:48:11.757Z,100005.78
2022-12-14T11:53:16.456Z,100000.75
2022-12-14T11:58:23.252Z,99994.53
2022-12-14T12:03:31.005Z,99993.22
2022-12-14T12:08:38.131Z,99990.28
2022-12-14T12:13:42.912Z,99983.81
2022-12-14T12:18:50.746Z,99981.00
2022-12-14T12:23:58.953Z,99972.59
2022-12-14T12:29:03.937Z,99974.00
2022-12-14T12:34:15.369Z,99965.66
2022-12-14T12:39:24.824Z,99968.09
2022-12-14T12:44:39.225Z,99964.41
2022-12-14T12:49:43.520Z,99957.41
2022-12-14T12:54:55.440Z,99963.53
2022-12-14T13:00:00.341Z,99963.03
2022-12-14T13:05:43.967Z,99965.59
2022-12-14T13:10:34.441Z,99959.19
2022-12-14T13:15:42.590Z,99956.25
2022-12-14T13:20:46.762Z,99947.09
2022-12-14T13:26:06.841Z,99939.97
2022-12-14T13:31:20.320Z,99932.78
2022-12-14T13:36:39.179Z,99939.34
2022-12-14T13:41:52.561Z,99941.47
2022-12-14T13:47:01.829Z,99921.94
2022-12-14T13:52:07.023Z,99925.13
2022-12-14T13:57:12.996Z,99925.28
2022-12-14T14:02:40.426Z,99939.84
2022-12-14T14:08:01.727Z,99944.91
2022-12-14T14:13:43.896Z,99944.00
2022-12-14T14:18:59.724Z,99938.75
2022-12-14T14:24:20.983Z,99938.84
2022-12-14T14:29:26.022Z,99921.66
2022-12-14T14:34:46.872Z,99930.19
2022-12-14T14:40:10.273Z,99926.09
2022-12-14T14:45:31.724Z,99927.59
2022-12-14T14:50:38.079Z,99920.13
2022-12-14T14:56:01.018Z,99927.72
2022-12-14T15:01:11.179Z,99917.91
2022-12-14T15:06:16.755Z,99931.06
2022-12-14T15:11:24.039Z,99920.28
2022-12-14T15:16:32.191Z,99927.00
2022-12-14T15:21:36.216Z,99930.69
2022-12-14T15:26:40.458Z,99920.84
2022-12-14T15:31:46.140Z,99933.44
2022-12-14T15:36:50.084Z,99937.19
2022-12-14T15:42:03.054Z,99939.38
2022-12-14T15:47:05.956Z,99945.75
2022-12-14T15:52:12.233Z,99938.50
2022-12-14T15:57:20.248Z,99942.88
2022-12-14T16:02:28.046Z,99942.88
2022-12-14T16:07:38.459Z,99932.69
2022-12-14T16:12:46.467Z,99929.03
2022-12-14T16:17:54.815Z,99933.56
2022-12-14T16:23:05.879Z,99943.66
2022-12-14T16:28:28.679Z,99936.81
2022-12-14T16:33:34.292Z,99939.69
2022-12-14T16:38:42.758Z,99934.22
2022-12-14T16:43:55.932Z,99941.00
2022-12-14T16:49:21.498Z,99953.25
2022-12-14T16:54:29.506Z,99941.06
2022-12-14T16:59:41.924Z,99934.38
2022-12-14T17:04:44.735Z,99941.94
2022-12-14T17:09:47.519Z,99945.06
2022-12-14T17:14:52.132Z,99944.13
2022-12-14T17:19:56.575Z,99933.56
2022-12-14T17:25:01.050Z,99932.50
2022-12-14T17:30:06.109Z,99929.66
2022-12-14T17:35:15.975Z,99937.75
2022-12-14T17:40:19.260Z,99951.91
2022-12-14T17:45:25.022Z,99943.53
2022-12-14T17:50:27.948Z,99945.97
2022-12-14T17:55:31.096Z,99940.94
2022-12-14T18:00:52.719Z,99944.22
2022-12-14T18:05:59.724Z,99939.81
2022-12-14T18:11:11.875Z,99947.19
2022-12-14T18:16:23.040Z,99953.78
2022-12-14T18:21:30.466Z,99949.28
2022-12-14T18:26:33.339Z,99943.34
2022-12-14T18:31:38.881Z,99936.41
2022-12-14T18:36:41.893Z,99935.38
2022-12-14T18:41:44.755Z,99938.06
2022-12-14T18:47:41.631Z,99932.50
2022-12-14T18:53:22.356Z,99930.63
2022-12-14T18:58:41.814Z,99931.69
2022-12-14T19:04:02.482Z,99940.63
2022-12-14T19:09:06.853Z,99948.06
2022-12-14T19:14:11.792Z,99958.69
2022-12-14T19:19:19.836Z,99971.81
2022-12-14T19:24:26.716Z,99961.66
2022-12-14T19:29:33.036Z,99960.19
2022-12-14T19:34:39.016Z,99973.00
2022-12-14T19:39:43.372Z,99966.66
2022-12-14T19:45:15.370Z,99981.00
2022-12-14T19:50:39.807Z,99989.69
2022-12-14T19:56:09.472Z,99982.84
2022-12-14T20:01:25.198Z,99973.22
2022-12-14T20:06:34.268Z,99965.31
2022-12-14T20:11:41.831Z,99967.50
2022-12-14T20:16:44.891Z,99961.88
2022-12-14T20:21:51.165Z,99959.38
2022-12-14T20:26:55.582Z,99963.91
2022-12-14T20:31:58.700Z,99959.44
2022-12-14T20:37:01.748Z,99961.97
2022-12-14T20:42:10.999Z,99953.25
2022-12-14T20:53:45.364Z,99946.47
2022-12-14T20:59:00.892Z,99940.63
2022-12-14T21:04:04.207Z,99948.44
2022-12-14T21:09:09.662Z,99952.63
2022-12-14T21:14:14.643Z,99949.88
2022-12-14T21:19:17.592Z,99952.84
2022-12-14T21:24:52.730Z,99948.53
2022-12-14T21:29:45.804Z,99955.44
2022-12-14T21:34:48.939Z,99957.22
2022-12-14T21:39:54.330Z,99965.91
2022-12-14T21:44:59.844Z,99964.88
2022-12-14T21:50:02.567Z,99968.84
2022-12-14T21:55:06.220Z,99963.41
2022-12-14T22:00:14.021Z,99970.47
2022-12-14T22:05:19.388Z,99979.84
2022-12-14T22:10:25.041Z,99976.06
2022-12-14T22:15:29.485Z,99985.44
2022-12-14T22:20:32.363Z,99987.78
2022-12-14T22:25:35.214Z,99989.00
2022-12-14T22:30:39.360Z,99999.44
2022-12-14T22:35:42.338Z,99993.69
2022-12-14T22:40:45.052Z,100011.28
2022-12-14T22:45:49.256Z,100011.13
2022-12-14T22:50:52.141Z,100007.50
2022-12-14T22:55:57.562Z,100007.53
2022-12-14T23:01:01.917Z,100027.25
2022-12-14T23:06:04.929Z,100018.13
2022-12-14T23:11:25.066Z,100017.03
2022-12-14T23:16:50.191Z,100004.97
2022-12-14T23:22:10.428Z,100006.38
2022-12-14T23:27:30.842Z,100002.47
2022-12-14T23:32:52.652Z,99999.19
2022-12-14T23:38:13.237Z,100004.03
2022-12-14T23:43:35.558Z,100007.34
2022-12-14T23:48:57.133Z,99988.88
2022-12-14T23:54:17.552Z,99996.78
2022-12-14T23:59:37.841Z,99992.66
